createdAt,value
2018-01-12T00:00:31.017Z,1011.2
2018-01-12T00:01:30.504Z,1011.26
2018-01-12T00:02:30.480Z,1011.24
2018-01-12T00:03:30.498Z,1011.27
2018-01-12T00:04:31.098Z,1011.28
2018-01-12T00:05:30.508Z,1011.3
2018-01-12T00:06:30.731Z,1011.3
2018-01-12T00:07:30.186Z,1011.3
2018-01-12T00:08:30.585Z,1011.34
2018-01-12T00:09:30.931Z,1011.34
2018-01-12T00:10:30.437Z,1011.31
2018-01-12T00:11:30.975Z,1011.38
2018-01-12T00:12:30.448Z,1011.33
2018-01-12T00:13:30.976Z,1011.38
2018-01-12T00:14:31.412Z,1011.32
2018-01-12T00:15:30.958Z,1011.37
2018-01-12T00:16:31.273Z,1011.36
2018-01-12T00:17:30.640Z,1011.39
2018-01-12T00:18:30.888Z,1011.39
2018-01-12T00:19:31.174Z,1011.37
2018-01-12T00:20:30.510Z,1011.38
2018-01-12T00:21:30.995Z,1011.42
2018-01-12T00:22:31.199Z,1011.38
2018-01-12T00:23:30.766Z,1011.42
2018-01-12T00:24:31.457Z,1011.44
2018-01-12T00:25:30.822Z,1011.45
2018-01-12T00:26:31.162Z,1011.44
2018-01-12T00:27:30.462Z,1011.46
2018-01-12T00:28:30.776Z,1011.49
2018-01-12T00:29:31.084Z,1011.45
2018-01-12T00:30:30.818Z,1011.48
2018-01-12T00:31:31.058Z,1011.46
2018-01-12T00:32:31.309Z,1011.47
2018-01-12T00:33:30.580Z,1011.47
2018-01-12T00:34:31.279Z,1011.45
2018-01-12T00:35:30.775Z,1011.43
2018-01-12T00:36:31.172Z,1011.44
2018-01-12T00:37:30.448Z,1011.45
2018-01-12T00:38:30.813Z,1011.46
2018-01-12T00:39:30.896Z,1011.41
2018-01-12T00:40:31.212Z,1011.39
2018-01-12T00:41:30.502Z,1011.44
2018-01-12T00:42:30.943Z,1011.45
2018-01-12T00:43:31.075Z,1011.4
2018-01-12T00:44:30.478Z,1011.44
2018-01-12T00:45:30.596Z,1011.46
2018-01-12T00:46:30.901Z,1011.47
2018-01-12T00:47:30.384Z,1011.48
2018-01-12T00:48:30.626Z,1011.5
2018-01-12T00:49:30.776Z,1011.44
2018-01-12T00:50:31.100Z,1011.5
2018-01-12T00:51:30.401Z,1011.49
2018-01-12T00:52:30.666Z,1011.46
2018-01-12T00:53:30.991Z,1011.46
2018-01-12T00:54:30.304Z,1011.45
2018-01-12T00:55:30.802Z,1011.45
2018-01-12T00:56:31.120Z,1011.44
2018-01-12T00:57:30.560Z,1011.49
2018-01-12T00:58:30.976Z,1011.47
2018-01-12T00:59:30.395Z,1011.51
2018-01-12T01:00:30.736Z,1011.49
2018-01-12T01:01:31.119Z,1011.49
2018-01-12T01:02:30.526Z,1011.52
2018-01-12T01:03:30.888Z,1011.56
2018-01-12T01:04:31.198Z,1011.57
2018-01-12T01:05:30.684Z,1011.52
2018-01-12T01:06:31.002Z,1011.58
2018-01-12T01:07:30.333Z,1011.56
2018-01-12T01:08:30.663Z,1011.56
2018-01-12T01:09:30.850Z,1011.58
2018-01-12T01:10:30.514Z,1011.57
2018-01-12T01:11:30.927Z,1011.6
2018-01-12T01:12:30.141Z,1011.6
2018-01-12T01:13:30.578Z,1011.59
2018-01-12T01:14:30.088Z,1011.62
2018-01-12T01:15:30.505Z,1011.63
2018-01-12T01:16:30.056Z,1011.65
2018-01-12T01:17:30.400Z,1011.66
2018-01-12T01:18:30.540Z,1011.69
2018-01-12T01:19:30.775Z,1011.73
2018-01-12T01:20:30.798Z,1011.67
2018-01-12T01:21:30.118Z,1011.71
2018-01-12T01:22:30.284Z,1011.68
2018-01-12T01:23:30.675Z,1011.68
2018-01-12T01:24:29.879Z,1011.71
2018-01-12T01:25:30.241Z,1011.7
2018-01-12T01:26:30.552Z,1011.71
2018-01-12T01:27:30.155Z,1011.72
2018-01-12T01:28:30.528Z,1011.71
2018-01-12T01:29:30.813Z,1011.72
2018-01-12T01:30:30.103Z,1011.74
2018-01-12T01:31:30.421Z,1011.72
2018-01-12T01:32:30.967Z,1011.72
2018-01-12T01:33:30.263Z,1011.72
2018-01-12T01:34:30.646Z,1011.76
2018-01-12T01:35:30.086Z,1011.78
2018-01-12T01:36:30.936Z,1011.8
2018-01-12T01:37:30.261Z,1011.83
2018-01-12T01:38:29.883Z,1011.83
2018-01-12T01:39:30.283Z,1011.89
2018-01-12T01:40:30.551Z,1011.81
2018-01-12T01:41:29.929Z,1011.83
2018-01-12T01:42:30.365Z,1011.83
2018-01-12T01:43:30.544Z,1011.81
2018-01-12T01:44:30.762Z,1011.84
2018-01-12T01:45:31.032Z,1011.87
2018-01-12T01:46:31.247Z,1011.85
2018-01-12T01:47:30.468Z,1011.85
2018-01-12T01:48:30.928Z,1011.94
2018-01-12T01:49:30.730Z,1011.92
2018-01-12T01:50:31.000Z,1011.92
2018-01-12T01:51:30.408Z,1011.93
2018-01-12T01:52:30.648Z,1011.94
2018-01-12T01:53:31.123Z,1011.98
2018-01-12T01:55:31.322Z,1011.97
2018-01-12T01:56:30.695Z,1011.99
2018-01-12T01:57:30.993Z,1012.02
2018-01-12T01:58:30.460Z,1012.05
2018-01-12T01:59:30.799Z,1012.06
2018-01-12T02:00:31.363Z,1012.12
2018-01-12T02:01:30.517Z,1012.1
2018-01-12T02:02:30.747Z,1012.1
2018-01-12T02:03:31.225Z,1012.1
2018-01-12T02:04:30.719Z,1012.1
2018-01-12T02:05:31.134Z,1012.1
2018-01-12T02:06:31.945Z,1012.07
2018-01-12T02:07:31.238Z,1012.1
2018-01-12T02:08:30.479Z,1012.09
2018-01-12T02:09:30.895Z,1012.11
2018-01-12T02:10:31.294Z,1012.13
2018-01-12T02:11:30.768Z,1012.1
2018-01-12T02:12:31.195Z,1012.13
2018-01-12T02:13:30.342Z,1012.13
2018-01-12T02:14:30.653Z,1012.08
2018-01-12T02:15:31.054Z,1012.09
2018-01-12T02:16:30.404Z,1012.06
2018-01-12T02:17:30.615Z,1012.05
2018-01-12T02:18:30.830Z,1012.02
2018-01-12T02:19:31.128Z,1012.04
2018-01-12T02:20:30.543Z,1012.01
2018-01-12T02:21:31.078Z,1012.05
2018-01-12T02:22:30.779Z,1012.01
2018-01-12T02:23:31.104Z,1012.06
2018-01-12T02:24:30.477Z,1012.03
2018-01-12T02:25:30.992Z,1012.04
2018-01-12T02:26:30.474Z,1012.05
2018-01-12T02:27:31.078Z,1012.05
2018-01-12T02:28:30.755Z,1012.07
2018-01-12T02:29:31.133Z,1012.09
2018-01-12T02:30:30.460Z,1012.09
2018-01-12T02:31:30.530Z,1012.1
2018-01-12T02:32:30.943Z,1012.11
2018-01-12T02:33:30.571Z,1012.12
2018-01-12T02:34:31.251Z,1012.09
2018-01-12T02:35:30.805Z,1012.12
2018-01-12T02:36:31.235Z,1012.11
2018-01-12T02:37:30.643Z,1012.16
2018-01-12T02:38:31.059Z,1012.1
2018-01-12T02:39:30.603Z,1012.1
2018-01-12T02:40:30.994Z,1012.14
2018-01-12T02:41:30.353Z,1012.16
2018-01-12T02:42:30.914Z,1012.09
2018-01-12T02:43:30.390Z,1012.13
2018-01-12T02:44:30.930Z,1012.13
2018-01-12T02:45:31.358Z,1012.13
2018-01-12T02:46:30.861Z,1012.13
2018-01-12T02:47:31.343Z,1012.16
2018-01-12T02:48:31.046Z,1012.14
2018-01-12T02:49:31.625Z,1012.16
2018-01-12T02:50:30.785Z,1012.15
2018-01-12T02:51:31.050Z,1012.18
2018-01-12T02:52:30.527Z,1012.17
2018-01-12T02:53:30.938Z,1012.16
2018-01-12T02:54:31.258Z,1012.11
2018-01-12T02:55:31.046Z,1012.13
2018-01-12T02:56:31.250Z,1012.14
2018-01-12T02:57:30.476Z,1012.13
2018-01-12T02:58:30.794Z,1012.07
2018-01-12T02:59:31.267Z,1012.16
2018-01-12T03:00:30.698Z,1012.17
2018-01-12T03:01:31.460Z,1012.18
2018-01-12T03:02:30.915Z,1012.15
2018-01-12T03:03:31.263Z,1012.16
2018-01-12T03:04:30.694Z,1012.17
2018-01-12T03:05:31.141Z,1012.21
2018-01-12T03:06:30.929Z,1012.2
2018-01-12T03:07:30.692Z,1012.24
2018-01-12T03:08:31.202Z,1012.24
2018-01-12T03:09:30.617Z,1012.24
2018-01-12T03:10:30.973Z,1012.25
2018-01-12T03:11:31.210Z,1012.28
2018-01-12T03:12:30.690Z,1012.29
2018-01-12T03:13:31.167Z,1012.27
2018-01-12T03:14:30.429Z,1012.29
2018-01-12T03:15:30.710Z,1012.28
2018-01-12T03:16:31.112Z,1012.3
2018-01-12T03:17:30.729Z,1012.31
2018-01-12T03:18:31.069Z,1012.32
2018-01-12T03:19:30.563Z,1012.37
2018-01-12T03:20:31.083Z,1012.35
2018-01-12T03:21:30.534Z,1012.38
2018-01-12T03:22:31.043Z,1012.37
2018-01-12T03:23:30.548Z,1012.38
2018-01-12T03:24:30.864Z,1012.4
2018-01-12T03:25:30.328Z,1012.38
2018-01-12T03:26:30.673Z,1012.39
2018-01-12T03:27:31.086Z,1012.37
2018-01-12T03:28:30.716Z,1012.44
2018-01-12T03:29:30.216Z,1012.42
2018-01-12T03:30:30.788Z,1012.4
2018-01-12T03:31:30.982Z,1012.43
2018-01-12T03:32:30.436Z,1012.49
2018-01-12T03:33:30.782Z,1012.52
2018-01-12T03:34:31.137Z,1012.54
2018-01-12T03:35:30.469Z,1012.53
2018-01-12T03:36:30.971Z,1012.55
2018-01-12T03:37:30.442Z,1012.56
2018-01-12T03:38:30.627Z,1012.49
2018-01-12T03:39:30.968Z,1012.52
2018-01-12T03:40:30.271Z,1012.54
2018-01-12T03:41:30.629Z,1012.56
2018-01-12T03:42:31.319Z,1012.57
2018-01-12T03:43:30.553Z,1012.56
2018-01-12T03:44:30.911Z,1012.58
2018-01-12T03:45:30.351Z,1012.6
2018-01-12T03:46:30.540Z,1012.62
2018-01-12T03:47:29.836Z,1012.61
2018-01-12T03:48:30.209Z,1012.56
2018-01-12T03:49:30.465Z,1012.57
2018-01-12T03:50:30.019Z,1012.56
2018-01-12T03:51:30.462Z,1012.59
2018-01-12T03:52:30.000Z,1012.58
2018-01-12T03:53:30.449Z,1012.53
2018-01-12T03:54:30.674Z,1012.55
2018-01-12T03:55:29.980Z,1012.6
2018-01-12T03:56:30.502Z,1012.63
2018-01-12T03:57:29.928Z,1012.6
2018-01-12T03:58:30.236Z,1012.6
2018-01-12T03:59:30.516Z,1012.6
2018-01-12T04:00:29.738Z,1012.61
2018-01-12T04:01:30.194Z,1012.61
2018-01-12T04:02:30.612Z,1012.62
2018-01-12T04:03:30.021Z,1012.63
2018-01-12T04:04:30.544Z,1012.61
2018-01-12T04:05:30.053Z,1012.62
2018-01-12T04:06:30.456Z,1012.64
2018-01-12T04:07:30.748Z,1012.61
2018-01-12T04:08:30.130Z,1012.67
2018-01-12T04:09:30.491Z,1012.65
2018-01-12T04:10:30.783Z,1012.67
2018-01-12T04:11:30.356Z,1012.64
2018-01-12T04:12:30.194Z,1012.65
2018-01-12T04:13:30.633Z,1012.66
2018-01-12T04:14:30.108Z,1012.62
2018-01-12T04:15:30.462Z,1012.65
2018-01-12T04:16:31.026Z,1012.65
2018-01-12T04:17:31.371Z,1012.67
2018-01-12T04:18:30.637Z,1012.66
2018-01-12T04:19:31.049Z,1012.62
2018-01-12T04:20:31.274Z,1012.66
2018-01-12T04:21:30.716Z,1012.65
2018-01-12T04:22:31.219Z,1012.67
2018-01-12T04:23:30.479Z,1012.67
2018-01-12T04:24:30.887Z,1012.68
2018-01-12T04:25:31.194Z,1012.74
2018-01-12T04:26:30.412Z,1012.75
2018-01-12T04:27:30.668Z,1012.72
2018-01-12T04:28:30.837Z,1012.73
2018-01-12T04:29:31.091Z,1012.74
2018-01-12T04:30:30.521Z,1012.76
2018-01-12T04:31:30.888Z,1012.78
2018-01-12T04:32:31.139Z,1012.74
2018-01-12T04:33:30.664Z,1012.75
2018-01-12T04:34:30.686Z,1012.73
2018-01-12T04:35:30.867Z,1012.73
2018-01-12T04:36:30.978Z,1012.76
2018-01-12T04:37:31.118Z,1012.78
2018-01-12T04:38:30.388Z,1012.82
2018-01-12T04:39:30.679Z,1012.76
2018-01-12T04:40:30.920Z,1012.83
2018-01-12T04:41:31.204Z,1012.76
2018-01-12T04:42:30.470Z,1012.77
2018-01-12T04:43:30.643Z,1012.78
2018-01-12T04:44:31.023Z,1012.75
2018-01-12T04:45:31.490Z,1012.76
2018-01-12T04:46:30.766Z,1012.76
2018-01-12T04:47:31.066Z,1012.79
2018-01-12T04:48:31.327Z,1012.81
2018-01-12T04:49:30.555Z,1012.77
2018-01-12T04:50:31.042Z,1012.86
2018-01-12T04:51:30.665Z,1012.86
2018-01-12T04:52:31.081Z,1012.87
2018-01-12T04:53:30.542Z,1012.81
2018-01-12T04:54:30.970Z,1012.84
2018-01-12T04:55:31.419Z,1012.8
2018-01-12T04:56:31.029Z,1012.8
2018-01-12T04:57:31.553Z,1012.81
2018-01-12T04:58:31.030Z,1012.86
2018-01-12T04:59:30.511Z,1012.86
2018-01-12T05:00:31.109Z,1012.9
2018-01-12T05:01:30.603Z,1012.92
2018-01-12T05:02:31.118Z,1012.91
2018-01-12T05:03:30.731Z,1012.95
2018-01-12T05:04:31.264Z,1012.94
2018-01-12T05:05:31.021Z,1012.95
2018-01-12T05:06:30.497Z,1012.95
2018-01-12T05:07:31.003Z,1012.98
2018-01-12T05:08:30.612Z,1012.99
2018-01-12T05:09:31.542Z,1012.96
2018-01-12T05:10:31.138Z,1013
2018-01-12T05:11:30.687Z,1013.01
2018-01-12T05:12:31.245Z,1013.02
2018-01-12T05:13:30.865Z,1013
2018-01-12T05:14:31.405Z,1013.03
2018-01-12T05:15:30.953Z,1013.03
2018-01-12T05:16:30.717Z,1013.06
2018-01-12T05:17:31.221Z,1013.1
2018-01-12T05:18:30.653Z,1013.09
2018-01-12T05:19:31.407Z,1013.08
2018-01-12T05:20:30.851Z,1013.09
2018-01-12T05:21:31.351Z,1013.09
2018-01-12T05:22:31.295Z,1013.08
2018-01-12T05:23:30.713Z,1013.12
2018-01-12T05:24:31.136Z,1013.13
2018-01-12T05:25:31.416Z,1013.14
2018-01-12T05:26:31.004Z,1013.11
2018-01-12T05:27:31.433Z,1013.1
2018-01-12T05:28:30.746Z,1013.08
2018-01-12T05:29:31.036Z,1013.09
2018-01-12T05:30:31.262Z,1013.11
2018-01-12T05:31:31.552Z,1013.19
2018-01-12T05:32:30.900Z,1013.13
2018-01-12T05:33:31.114Z,1013.16
2018-01-12T05:34:31.468Z,1013.16
2018-01-12T05:35:30.780Z,1013.16
2018-01-12T05:36:31.028Z,1013.16
2018-01-12T05:37:31.486Z,1013.2
2018-01-12T05:38:30.791Z,1013.17
2018-01-12T05:39:31.209Z,1013.22
2018-01-12T05:40:30.662Z,1013.21
2018-01-12T05:41:30.930Z,1013.23
2018-01-12T05:42:31.405Z,1013.3
2018-01-12T05:43:30.741Z,1013.3
2018-01-12T05:44:31.149Z,1013.32
2018-01-12T05:45:31.550Z,1013.32
2018-01-12T05:46:30.702Z,1013.31
2018-01-12T05:47:31.373Z,1013.31
2018-01-12T05:48:31.082Z,1013.33
2018-01-12T05:49:31.456Z,1013.33
2018-01-12T05:50:30.795Z,1013.34
2018-01-12T05:51:31.021Z,1013.32
2018-01-12T05:52:31.315Z,1013.33
2018-01-12T05:53:31.732Z,1013.35
2018-01-12T05:54:30.828Z,1013.36
2018-01-12T05:55:31.058Z,1013.35
2018-01-12T05:56:31.395Z,1013.37
2018-01-12T05:57:30.948Z,1013.32
2018-01-12T05:58:31.175Z,1013.31
2018-01-12T05:59:31.479Z,1013.35
2018-01-12T06:00:30.812Z,1013.35
2018-01-12T06:01:31.053Z,1013.36
2018-01-12T06:02:31.464Z,1013.35
2018-01-12T06:03:31.740Z,1013.36
2018-01-12T06:04:30.979Z,1013.37
2018-01-12T06:05:31.241Z,1013.35
2018-01-12T06:06:31.520Z,1013.35
2018-01-12T06:07:30.715Z,1013.34
2018-01-12T06:08:31.304Z,1013.34
2018-01-12T06:09:30.869Z,1013.33
2018-01-12T06:10:31.145Z,1013.3
2018-01-12T06:11:31.283Z,1013.31
2018-01-12T06:12:31.725Z,1013.28
2018-01-12T06:13:31.185Z,1013.29
2018-01-12T06:14:31.566Z,1013.32
2018-01-12T06:15:30.940Z,1013.32
2018-01-12T06:16:31.158Z,1013.34
2018-01-12T06:17:30.566Z,1013.37
2018-01-12T06:18:31.028Z,1013.36
2018-01-12T06:19:30.422Z,1013.38
2018-01-12T06:20:30.867Z,1013.37
2018-01-12T06:21:30.994Z,1013.46
2018-01-12T06:22:30.189Z,1013.47
2018-01-12T06:23:30.380Z,1013.44
2018-01-12T06:24:30.822Z,1013.45
2018-01-12T06:25:30.287Z,1013.42
2018-01-12T06:26:30.665Z,1013.48
2018-01-12T06:27:30.948Z,1013.41
2018-01-12T06:28:31.094Z,1013.44
2018-01-12T06:29:30.356Z,1013.49
2018-01-12T06:30:30.505Z,1013.45
2018-01-12T06:31:30.981Z,1013.46
2018-01-12T06:32:30.370Z,1013.47
2018-01-12T06:33:30.602Z,1013.51
2018-01-12T06:34:30.876Z,1013.53
2018-01-12T06:35:31.138Z,1013.51
2018-01-12T06:36:30.484Z,1013.52
2018-01-12T06:37:30.798Z,1013.49
2018-01-12T06:38:30.832Z,1013.5
2018-01-12T06:39:30.987Z,1013.5
2018-01-12T06:40:31.123Z,1013.48
2018-01-12T06:41:30.516Z,1013.52
2018-01-12T06:42:30.755Z,1013.54
2018-01-12T06:43:31.009Z,1013.59
2018-01-12T06:44:30.317Z,1013.57
2018-01-12T06:45:30.442Z,1013.57
2018-01-12T06:46:30.693Z,1013.63
2018-01-12T06:47:30.910Z,1013.64
2018-01-12T06:48:30.687Z,1013.63
2018-01-12T06:49:30.144Z,1013.63
2018-01-12T06:50:30.482Z,1013.69
2018-01-12T06:51:30.571Z,1013.7
2018-01-12T06:52:30.040Z,1013.69
2018-01-12T06:53:30.490Z,1013.71
2018-01-12T06:54:30.786Z,1013.73
2018-01-12T06:55:30.009Z,1013.68
2018-01-12T06:56:30.183Z,1013.71
2018-01-12T06:57:30.493Z,1013.74
2018-01-12T06:58:30.642Z,1013.79
2018-01-12T06:59:30.963Z,1013.74
2018-01-12T07:00:30.266Z,1013.74
2018-01-12T07:01:30.572Z,1013.71
2018-01-12T07:02:30.844Z,1013.71
2018-01-12T07:03:30.334Z,1013.71
2018-01-12T07:04:30.939Z,1013.71
2018-01-12T07:05:30.316Z,1013.72
2018-01-12T07:06:30.850Z,1013.67
2018-01-12T07:07:30.337Z,1013.7
2018-01-12T07:08:30.747Z,1013.73
2018-01-12T07:09:30.086Z,1013.75
2018-01-12T07:10:30.313Z,1013.73
2018-01-12T07:11:30.500Z,1013.79
2018-01-12T07:12:30.834Z,1013.74
2018-01-12T07:13:30.251Z,1013.79
2018-01-12T07:14:30.704Z,1013.78
2018-01-12T07:15:30.940Z,1013.77
2018-01-12T07:16:30.259Z,1013.78
2018-01-12T07:17:30.723Z,1013.81
2018-01-12T07:18:30.435Z,1013.79
2018-01-12T07:19:30.941Z,1013.78
2018-01-12T07:20:30.340Z,1013.79
2018-01-12T07:21:30.778Z,1013.76
2018-01-12T07:22:31.224Z,1013.75
2018-01-12T07:23:30.899Z,1013.74
2018-01-12T07:24:31.295Z,1013.73
2018-01-12T07:25:30.741Z,1013.78
2018-01-12T07:26:30.975Z,1013.76
2018-01-12T07:27:31.276Z,1013.75
2018-01-12T07:28:30.784Z,1013.77
2018-01-12T07:29:31.144Z,1013.78
2018-01-12T07:30:30.594Z,1013.75
2018-01-12T07:31:30.830Z,1013.75
2018-01-12T07:32:31.049Z,1013.79
2018-01-12T07:33:30.669Z,1013.78
2018-01-12T07:34:31.047Z,1013.81
2018-01-12T07:35:30.368Z,1013.8
2018-01-12T07:36:30.909Z,1013.8
2018-01-12T07:37:31.238Z,1013.83
2018-01-12T07:38:30.513Z,1013.81
2018-01-12T07:39:30.912Z,1013.81
2018-01-12T07:40:31.356Z,1013.86
2018-01-12T07:41:30.631Z,1013.79
2018-01-12T07:42:30.922Z,1013.84
2018-01-12T07:43:31.226Z,1013.85
2018-01-12T07:44:30.733Z,1013.85
2018-01-12T07:45:31.129Z,1013.88
2018-01-12T07:46:31.371Z,1013.9
2018-01-12T07:47:30.884Z,1013.88
2018-01-12T07:48:31.274Z,1013.88
2018-01-12T07:49:30.650Z,1013.87
2018-01-12T07:50:31.140Z,1013.86
2018-01-12T07:51:30.363Z,1013.92
2018-01-12T07:52:31.177Z,1013.92
2018-01-12T07:53:30.835Z,1013.97
2018-01-12T07:54:31.212Z,1013.97
2018-01-12T07:55:30.723Z,1013.98
2018-01-12T07:56:30.211Z,1014.03
2018-01-12T07:57:30.303Z,1014.04
2018-01-12T07:58:30.579Z,1014.06
2018-01-12T07:59:30.820Z,1014.04
2018-01-12T08:00:31.052Z,1014.06
2018-01-12T08:01:30.323Z,1014.05
2018-01-12T08:02:30.555Z,1014.07
2018-01-12T08:03:30.758Z,1014.08
2018-01-12T08:04:31.097Z,1014.11
2018-01-12T08:05:30.401Z,1014.1
2018-01-12T08:06:30.639Z,1014.12
2018-01-12T08:07:30.760Z,1014.13
2018-01-12T08:08:31.101Z,1014.19
2018-01-12T08:09:30.692Z,1014.18
2018-01-12T08:10:31.011Z,1014.18
2018-01-12T08:11:30.370Z,1014.24
2018-01-12T08:12:30.400Z,1014.2
2018-01-12T08:13:30.737Z,1014.2
2018-01-12T08:14:31.107Z,1014.21
2018-01-12T08:15:30.419Z,1014.21
2018-01-12T08:16:31.047Z,1014.23
2018-01-12T08:17:30.311Z,1014.25
2018-01-12T08:18:30.630Z,1014.21
2018-01-12T08:19:31.001Z,1014.23
2018-01-12T08:20:30.495Z,1014.21
2018-01-12T08:21:30.945Z,1014.2
2018-01-12T08:22:30.495Z,1014.26
2018-01-12T08:23:30.599Z,1014.25
2018-01-12T08:24:29.976Z,1014.22
2018-01-12T08:25:30.208Z,1014.26
2018-01-12T08:26:30.570Z,1014.28
2018-01-12T08:27:30.901Z,1014.3
2018-01-12T08:28:30.329Z,1014.29
2018-01-12T08:29:30.648Z,1014.32
2018-01-12T08:30:30.780Z,1014.3
2018-01-12T08:31:30.375Z,1014.34
2018-01-12T08:32:30.639Z,1014.34
2018-01-12T08:33:30.160Z,1014.34
2018-01-12T08:34:30.627Z,1014.32
2018-01-12T08:35:30.956Z,1014.36
2018-01-12T08:36:30.532Z,1014.36
2018-01-12T08:37:30.758Z,1014.37
2018-01-12T08:38:30.999Z,1014.38
2018-01-12T08:39:30.418Z,1014.37
2018-01-12T08:40:30.800Z,1014.35
2018-01-12T08:41:30.145Z,1014.43
2018-01-12T08:42:30.009Z,1014.38
2018-01-12T08:43:30.433Z,1014.39
2018-01-12T08:44:30.618Z,1014.41
2018-01-12T08:45:30.826Z,1014.43
2018-01-12T08:46:30.063Z,1014.41
2018-01-12T08:47:30.376Z,1014.45
2018-01-12T08:48:30.633Z,1014.41
2018-01-12T08:49:30.967Z,1014.41
2018-01-12T08:50:31.162Z,1014.4
2018-01-12T08:51:30.548Z,1014.39
2018-01-12T08:52:30.165Z,1014.43
2018-01-12T08:53:30.515Z,1014.41
2018-01-12T08:54:30.760Z,1014.4
2018-01-12T08:55:30.115Z,1014.4
2018-01-12T08:56:30.476Z,1014.37
2018-01-12T08:57:30.614Z,1014.38
2018-01-12T08:58:30.985Z,1014.39
2018-01-12T08:59:30.306Z,1014.39
2018-01-12T09:00:30.742Z,1014.41
2018-01-12T09:01:30.211Z,1014.41
2018-01-12T09:02:30.585Z,1014.42
2018-01-12T09:03:30.974Z,1014.43
2018-01-12T09:04:30.295Z,1014.44
2018-01-12T09:05:30.589Z,1014.43
2018-01-12T09:06:30.963Z,1014.44
2018-01-12T09:07:30.211Z,1014.44
2018-01-12T09:08:30.586Z,1014.45
2018-01-12T09:09:30.876Z,1014.44
2018-01-12T09:10:30.238Z,1014.46
2018-01-12T09:11:30.431Z,1014.47
2018-01-12T09:12:30.516Z,1014.44
2018-01-12T09:13:30.805Z,1014.5
2018-01-12T09:14:30.195Z,1014.53
2018-01-12T09:15:30.556Z,1014.52
2018-01-12T09:16:30.780Z,1014.58
2018-01-12T09:17:31.034Z,1014.55
2018-01-12T09:18:30.349Z,1014.61
2018-01-12T09:19:30.663Z,1014.58
2018-01-12T09:20:30.069Z,1014.61
2018-01-12T09:21:30.605Z,1014.58
2018-01-12T09:22:30.892Z,1014.61
2018-01-12T09:23:31.197Z,1014.54
2018-01-12T09:24:31.389Z,1014.56
2018-01-12T09:25:30.733Z,1014.58
2018-01-12T09:26:30.876Z,1014.64
2018-01-12T09:27:31.129Z,1014.59
2018-01-12T09:28:31.428Z,1014.65
2018-01-12T09:29:30.650Z,1014.68
2018-01-12T09:30:31.068Z,1014.68
2018-01-12T09:31:31.380Z,1014.64
2018-01-12T09:32:30.863Z,1014.64
2018-01-12T09:33:31.204Z,1014.67
2018-01-12T09:34:31.420Z,1014.68
2018-01-12T09:35:30.924Z,1014.72
2018-01-12T09:36:31.256Z,1014.72
2018-01-12T09:37:31.469Z,1014.73
2018-01-12T09:38:30.898Z,1014.76
2018-01-12T09:39:31.176Z,1014.73
2018-01-12T09:40:31.363Z,1014.74
2018-01-12T09:41:31.531Z,1014.77
2018-01-12T09:42:30.943Z,1014.77
2018-01-12T09:43:31.245Z,1014.74
2018-01-12T09:44:31.548Z,1014.79
2018-01-12T09:45:31.021Z,1014.82
2018-01-12T09:46:30.648Z,1014.82
2018-01-12T09:47:30.901Z,1014.78
2018-01-12T09:48:31.055Z,1014.8
2018-01-12T09:49:31.316Z,1014.82
2018-01-12T09:50:30.736Z,1014.84
2018-01-12T09:51:31.269Z,1014.84
2018-01-12T09:52:30.664Z,1014.83
2018-01-12T09:53:31.023Z,1014.84
2018-01-12T09:54:30.459Z,1014.86
2018-01-12T09:55:31.055Z,1014.85
2018-01-12T09:56:30.577Z,1014.86
2018-01-12T09:57:30.949Z,1014.89
2018-01-12T09:58:30.204Z,1014.89
2018-01-12T09:59:30.545Z,1014.92
2018-01-12T10:00:30.960Z,1014.97
2018-01-12T10:01:32.361Z,1014.91
2018-01-12T10:02:31.160Z,1014.94
2018-01-12T10:03:31.113Z,1014.94
2018-01-12T10:05:31.945Z,1014.93
2018-01-12T10:06:31.381Z,1014.92
2018-01-12T10:07:30.650Z,1014.92
2018-01-12T10:08:30.297Z,1014.9
2018-01-12T10:09:31.025Z,1014.93
2018-01-12T10:10:32.407Z,1014.95
2018-01-12T10:11:32.390Z,1014.88
2018-01-12T10:12:31.299Z,1014.92
2018-01-12T10:13:30.878Z,1014.9
2018-01-12T10:14:31.988Z,1014.92
2018-01-12T10:15:30.708Z,1014.92
2018-01-12T10:16:31.135Z,1014.96
2018-01-12T10:17:30.858Z,1014.91
2018-01-12T10:18:30.245Z,1014.98
2018-01-12T10:19:30.561Z,1014.97
2018-01-12T10:20:30.895Z,1014.94
2018-01-12T10:21:30.974Z,1014.97
2018-01-12T10:22:30.713Z,1014.94
2018-01-12T10:23:31.222Z,1014.92
2018-01-12T10:24:30.888Z,1014.94
2018-01-12T10:25:31.480Z,1014.96
2018-01-12T10:26:31.494Z,1014.93
2018-01-12T10:27:31.669Z,1014.92
2018-01-12T10:28:31.183Z,1014.91
2018-01-12T10:29:31.354Z,1014.91
2018-01-12T10:30:31.534Z,1014.89
2018-01-12T10:31:31.760Z,1014.9
2018-01-12T10:32:31.105Z,1014.95
2018-01-12T10:33:31.340Z,1014.9
2018-01-12T10:34:31.680Z,1014.89
2018-01-12T10:35:31.113Z,1014.91
2018-01-12T10:36:31.389Z,1014.89
2018-01-12T10:37:31.640Z,1014.92
2018-01-12T10:38:30.760Z,1014.9
2018-01-12T10:39:31.194Z,1014.9
2018-01-12T10:40:31.663Z,1014.89
2018-01-12T10:41:31.066Z,1014.9
2018-01-12T10:42:31.628Z,1014.86
2018-01-12T10:43:30.894Z,1014.88
2018-01-12T10:44:31.428Z,1014.89
2018-01-12T10:45:30.726Z,1014.95
2018-01-12T10:46:30.951Z,1014.91
2018-01-12T10:47:31.392Z,1014.88
2018-01-12T10:48:31.686Z,1014.93
2018-01-12T10:49:31.339Z,1014.9
2018-01-12T10:50:30.883Z,1014.89
2018-01-12T10:51:31.183Z,1014.89
2018-01-12T10:52:31.575Z,1014.91
2018-01-12T10:53:30.569Z,1014.92
2018-01-12T10:54:30.799Z,1014.94
2018-01-12T10:55:31.208Z,1014.96
2018-01-12T10:56:31.478Z,1014.92
2018-01-12T10:57:30.799Z,1014.95
2018-01-12T10:58:31.148Z,1014.98
2018-01-12T10:59:31.457Z,1014.94
2018-01-12T11:00:30.921Z,1014.92
2018-01-12T11:01:31.159Z,1014.93
2018-01-12T11:02:31.452Z,1014.91
2018-01-12T11:03:30.745Z,1014.93
2018-01-12T11:04:31.056Z,1014.94
2018-01-12T11:05:31.158Z,1014.92
2018-01-12T11:06:31.484Z,1014.9
2018-01-12T11:07:30.788Z,1014.93
2018-01-12T11:08:30.969Z,1014.89
2018-01-12T11:09:31.117Z,1014.85
2018-01-12T11:10:31.272Z,1014.88
2018-01-12T11:11:31.212Z,1014.87
2018-01-12T11:12:31.536Z,1014.85
2018-01-12T11:13:30.917Z,1014.87
2018-01-12T11:14:31.316Z,1014.83
2018-01-12T11:15:31.538Z,1014.83
2018-01-12T11:16:30.948Z,1014.83
2018-01-12T11:17:31.146Z,1014.82
2018-01-12T11:18:31.384Z,1014.81
2018-01-12T11:19:30.769Z,1014.84
2018-01-12T11:20:31.076Z,1014.82
2018-01-12T11:21:31.175Z,1014.81
2018-01-12T11:22:31.486Z,1014.83
2018-01-12T11:23:30.752Z,1014.8
2018-01-12T11:24:31.603Z,1014.78
2018-01-12T11:25:30.742Z,1014.75
2018-01-12T11:26:31.085Z,1014.78
2018-01-12T11:27:31.331Z,1014.76
2018-01-12T11:28:31.644Z,1014.75
2018-01-12T11:29:30.817Z,1014.76
2018-01-12T11:30:30.934Z,1014.73
2018-01-12T11:31:31.581Z,1014.75
2018-01-12T11:32:31.018Z,1014.75
2018-01-12T11:33:31.348Z,1014.75
2018-01-12T11:34:31.595Z,1014.72
2018-01-12T11:35:30.720Z,1014.74
2018-01-12T11:36:31.057Z,1014.72
2018-01-12T11:37:31.505Z,1014.73
2018-01-12T11:38:30.826Z,1014.67
2018-01-12T11:39:31.015Z,1014.69
2018-01-12T11:40:31.177Z,1014.69
2018-01-12T11:41:31.267Z,1014.67
2018-01-12T11:42:31.441Z,1014.62
2018-01-12T11:43:30.904Z,1014.61
2018-01-12T11:44:31.218Z,1014.65
2018-01-12T11:45:31.519Z,1014.67
2018-01-12T11:46:30.684Z,1014.64
2018-01-12T11:47:30.733Z,1014.64
2018-01-12T11:48:31.105Z,1014.6
2018-01-12T11:49:31.395Z,1014.58
2018-01-12T11:50:31.595Z,1014.53
2018-01-12T11:51:30.791Z,1014.56
2018-01-12T11:52:31.084Z,1014.57
2018-01-12T11:53:31.510Z,1014.61
2018-01-12T11:54:30.901Z,1014.55
2018-01-12T11:55:31.139Z,1014.5
2018-01-12T11:56:31.221Z,1014.59
2018-01-12T11:57:30.548Z,1014.6
2018-01-12T11:58:30.918Z,1014.55
2018-01-12T11:59:31.174Z,1014.56
2018-01-12T12:00:30.403Z,1014.51
2018-01-12T12:01:30.588Z,1014.55
2018-01-12T12:02:30.766Z,1014.54
2018-01-12T12:03:31.390Z,1014.5
2018-01-12T12:04:30.817Z,1014.54
2018-01-12T12:05:31.172Z,1014.49
2018-01-12T12:06:30.513Z,1014.46
2018-01-12T12:07:30.889Z,1014.49
2018-01-12T12:08:31.659Z,1014.48
2018-01-12T12:09:30.887Z,1014.45
2018-01-12T12:10:31.180Z,1014.45